AirNav   Duncan Aviation - Near you to keep you flying
 
 567 users online  

55E
(formerly TE55)
Flyin Armadillo Airport
Jacksboro, Texas, USA

GOING TO JACKSBORO?


FAA INFORMATION EFFECTIVE 11 AUGUST 2022

Location

FAA Identifier: 55E
Lat/Long: 33-25-18.0800N 098-11-24.7300W
33-25.301333N 098-11.412167W
33.4216889,-98.1902028
(estimated)
Elevation: 999 ft. / 304 m (estimated)
Variation: 07E (1995)
From city: 14 miles N of JACKSBORO, TX
Time zone: UTC -5 (UTC -6 during Standard Time)
Zip code: 76230

Airport Operations

Airport use: Open to the public
Activation date: 02/1999
Control tower: no
ARTCC: FORT WORTH CENTER
FSS: FORT WORTH FLIGHT SERVICE STATION
NOTAMs facility: FTW (NOTAM-D service available)
Attendance: CONTINUOUS
Wind indicator: yes
Segmented circle: no
Lights: ACTVT MIRL RWY 07/25 - CTAF.

Airport Communications

CTAF/UNICOM: 122.8

Nearby radio navigation aids

VOR radial/distance  VOR name  Freq  Var
UKWr244/19.7BOWIE VORTAC117.1506E
SPSr139/39.5WICHITA FALLS VORTAC112.7010E

 
NDB name  Hdg/Dist  Freq  Var  ID
SCOTLAND140/26.334405ESKB ... -.- -...

Airport Services

Runway Information

Runway 7/25

Dimensions: 2816 x 100 ft. / 858 x 30 m
Surface: turf
Runway edge lights: medium intensity
RUNWAY 7  RUNWAY 25
Latitude: 33-25.247500N33-25.355167N
Longitude: 098-11.681333W098-11.143000W
Elevation: 856.0 ft.999.0 ft.
Traffic pattern: leftleft
Obstructions: none250 ft. tower, 2100 ft. from runway

Airport Ownership and Management from official FAA records

Ownership: Privately-owned
Owner: KEVIN R BERRY
13428 STATE HWY 148
BOWIE, TX 76230
Phone 940-507-1687
CELL 940-507-1687
Manager: KEVIN R BERRY
13428 STATE HWY 148
BOWIE, TX 76230
Phone 940-507-1687
FLYINARMADILLO1957@GMAIL.COM

Airport Operational Statistics

Aircraft based on the field: 2
Single engine airplanes: 2
    

Additional Remarks

FOR CD CTC FORT WORTH ARTCC AT 817-858-7584.

Instrument Procedures

There are no published instrument procedures at 55E.

Some nearby airports with instrument procedures:

0F2 - Bowie Municipal Airport (23 nm NE)
KXBP - Bridgeport Municipal Airport (23 nm SE)
KRPH - Graham Municipal Airport (26 nm SW)
KCWC - Kickapoo Downtown Airport (30 nm NW)
KONY - Olney Municipal Airport (32 nm W)
 
Loc | Ops | Rwys | IFR | FBO | Links
Com | Nav | Svcs | Stats | Notes

City of Fort Worth
 
Area around 55E (Flyin Armadillo Airport)
 
Road maps at: MapQuest Bing Google
 
Aerial photo
No photo
 
Sectional chart

 
Airport distance calculator
Flying to Flyin Armadillo Airport? Find the distance to fly.

From to 55E

Sunrise and sunset
Times for 13-Aug-2022
 Local
(UTC-5)
 Zulu
(UTC)
Morning civil twilight06:2811:28
Sunrise06:5511:55
Sunset20:2001:20
Evening civil twilight20:4701:47

Current date and time
Zulu (UTC)  13-Aug-2022 10:31:21
Local (UTC-5)  13-Aug-2022 05:31:21
 
METAR
K0F2 
23nm NE 
131015Z AUTO 10004KT 10SM CLR 25/21 A3006 RMK AO2 T02460206
KXBP 
23nm SE 
131015Z AUTO 00000KT 10SM CLR 23/19 A3006 RMK AO2 T02300192
KRPH 
26nm SW 
131015Z AUTO VRB03KT 10SM CLR 26/20 A3003 RMK AO2 SLP764 T02620196 $
KCWC 
30nm NW 
121640Z AUTO 14004KT 10SM CLR 32/19 A3010 RMK AO2 T03210194
KLUD 
32nm E 
118.22 940-927-2365
130955Z AUTO 09003KT 10SM CLR 25/21 A3006 RMK AO2 T02510207
KSPS 
37nm NW 
130952Z AUTO 12003KT 10SM CLR 25/19 A3004 RMK AO2 SLP158 T02500189
KMWL 
39nm S 
130953Z AUTO 14004KT 10SM CLR 26/19 A3003 RMK AO2 SLP151 T02560189
TAF
KSPS 
37nm NW 
130520Z 1306/1406 11007KT P6SM SKC FM131300 15010KT P6SM SCT080
NOTAMs
Click for the latest NOTAMs
NOTAMs are issued by the DoD/FAA and will open in a separate window not controlled by AirNav.

 

 
 

Would you like to see your business listed on this page?

 If your business provides an interesting product or service to pilots, flight crews, aircraft, or users of the Flyin Armadillo Airport, you should consider listing it here.  To start the listing process, click on the button below
 
Add a business
 

Other Pages about Flyin Armadillo Airport

Update a link
 
Copyright © AirNav, LLC. All rights reserved. Privacy Policy  Contact